KDEC/DEC METAR and TAF weather

Enter ICAO airport designator
Station Type Date Time Source
KDEC METAR 2018/10/21 02:54 UTC NOAA

KDEC 210254Z 32010KT 10SM CLR 03/M08 A3035 RMK AO2 SLP281 T00331083 51030


Station Type Date Time Source
KDEC Decoded METAR 2018/10/21 02:54 UTC NOAA

DECATUR AIRPORT, IL, United States (KDEC) 39-50N 88-52W 207M
Oct 20, 2018 - 10:54 PM EDT / 2018.10.21 0254 UTC
Wind: from the NW (320 degrees) at 12 MPH (10 KT):0
Visibility: 10 mile(s):0
Sky conditions: clear
Temperature: 37.9 F (3.3 C)
Dew Point: 17.1 F (-8.3 C)
Relative Humidity: 42%
Pressure (altimeter): 30.35 in. Hg (1027 hPa)
Pressure tendency: 0.09 inches (3.0 hPa) higher than three hours ago
ob: KDEC 210254Z 32010KT 10SM CLR 03/M08 A3035 RMK AO2 SLP281 T00331083 51030
cycle: 3

Station Type Date Time Source
KDEC TAF 2018/10/20 18:39 UTC NOAA

TAF KDEC 201737Z 2018/2118 31025G35KT P6SM FEW050
FM202300 33012G22KT P6SM SKC
FM210100 32012KT P6SM SKC
FM210400 32004KT P6SM SKC
FM211500 VRB05KT P6SM SKC


Example: see airport list